createdAt,value
2024-02-08T00:00:25.356Z,141932.94
2024-02-08T00:02:52.445Z,141968.94
2024-02-08T00:05:19.837Z,141995.31
2024-02-08T00:07:47.018Z,141977.31
2024-02-08T00:10:14.247Z,141978.53
2024-02-08T00:12:41.308Z,141990.50
2024-02-08T00:15:10.427Z,141906.53
2024-02-08T00:17:37.461Z,141990.50
2024-02-08T00:20:07.785Z,141995.31
2024-02-08T00:22:35.051Z,141995.31
2024-02-08T00:25:02.136Z,141904.09
2024-02-08T00:27:29.241Z,141942.53
2024-02-08T00:29:57.188Z,141988.13
2024-02-08T00:32:26.213Z,141983.34
2024-02-08T00:34:53.312Z,141988.13
2024-02-08T00:37:20.385Z,141991.75
2024-02-08T00:39:47.547Z,141976.13
2024-02-08T00:42:14.957Z,141974.94
2024-02-08T00:44:43.064Z,141880.13
2024-02-08T00:47:11.544Z,141961.72
2024-02-08T00:49:40.498Z,141970.13
2024-02-08T00:52:08.664Z,141964.16
2024-02-08T00:54:36.541Z,141960.53
2024-02-08T00:57:09.131Z,141964.16
2024-02-08T00:59:39.622Z,141961.72
2024-02-08T01:02:08.165Z,141959.31
2024-02-08T01:04:35.620Z,141954.50
2024-02-08T01:07:03.798Z,141959.31
2024-02-08T01:09:30.883Z,141955.75
2024-02-08T01:11:58.654Z,141913.69
2024-02-08T01:14:25.748Z,141966.53
2024-02-08T01:16:53.064Z,141894.50
2024-02-08T01:19:23.308Z,141899.31
2024-02-08T01:21:51.153Z,141971.31
2024-02-08T01:24:21.379Z,141964.16
2024-02-08T01:26:50.104Z,141956.94
2024-02-08T01:29:18.679Z,141906.53
2024-02-08T01:31:45.784Z,141944.91
2024-02-08T01:34:12.896Z,141818.97
2024-02-08T01:36:41.079Z,141815.34
2024-02-08T01:39:14.419Z,141931.72
2024-02-08T01:41:44.597Z,141948.53
2024-02-08T01:44:14.526Z,141930.50
2024-02-08T01:46:42.119Z,141919.72
2024-02-08T01:49:15.074Z,141937.72
2024-02-08T01:51:43.691Z,141935.31
2024-02-08T01:54:13.400Z,141922.09
2024-02-08T01:56:45.544Z,141896.94
2024-02-08T01:59:14.685Z,141940.13
2024-02-08T02:01:48.363Z,141817.78
2024-02-08T02:04:17.332Z,141962.91
2024-02-08T02:06:47.019Z,141956.94
2024-02-08T02:09:24.945Z,141907.72
2024-02-08T02:11:57.367Z,141928.16
2024-02-08T02:14:30.225Z,141956.94
2024-02-08T02:17:20.241Z,141970.13
2024-02-08T02:19:50.392Z,141916.13
2024-02-08T02:22:20.952Z,141851.34
2024-02-08T02:24:52.290Z,141964.16
2024-02-08T02:27:19.536Z,141967.72
2024-02-08T02:29:54.023Z,141935.31
2024-02-08T02:32:22.769Z,141865.78
2024-02-08T02:34:54.285Z,141942.53
2024-02-08T02:37:23.784Z,141930.50
2024-02-08T02:39:51.022Z,141936.50
2024-02-08T02:42:18.054Z,141827.38
2024-02-08T02:44:45.884Z,141877.69
2024-02-08T02:47:13.009Z,141947.34
2024-02-08T02:49:40.613Z,141941.31
2024-02-08T02:52:11.098Z,141930.50
2024-02-08T02:54:41.143Z,141932.94
2024-02-08T02:57:08.387Z,141841.75
2024-02-08T02:59:35.402Z,141935.31
2024-02-08T03:02:02.549Z,141930.50
2024-02-08T03:04:31.410Z,141944.91
2024-02-08T03:06:58.744Z,141944.91
2024-02-08T03:09:29.486Z,141912.53
2024-02-08T03:11:58.711Z,141946.13
2024-02-08T03:14:26.733Z,141948.53
2024-02-08T03:16:57.702Z,141943.72
2024-02-08T03:19:25.032Z,141944.91
2024-02-08T03:21:52.155Z,141949.72
2024-02-08T03:24:20.692Z,141966.53
2024-02-08T03:26:50.515Z,141946.13
2024-02-08T03:29:18.829Z,141936.50
2024-02-08T03:31:47.719Z,141925.72
2024-02-08T03:34:20.916Z,141961.72
2024-02-08T03:36:48.182Z,141961.72
2024-02-08T03:39:26.396Z,141956.94
2024-02-08T03:41:59.864Z,141971.31
2024-02-08T03:44:30.961Z,141865.78
2024-02-08T03:47:05.925Z,141978.53
2024-02-08T03:49:33.498Z,141995.31
2024-02-08T03:52:01.444Z,142000.16
2024-02-08T03:54:31.660Z,141989.31
2024-02-08T03:57:06.628Z,141992.94
2024-02-08T03:59:42.160Z,141925.72
2024-02-08T04:02:11.549Z,141890.91
2024-02-08T04:05:00.626Z,141977.31
2024-02-08T04:07:46.808Z,141966.53
2024-02-08T04:10:34.821Z,141954.50
2024-02-08T04:13:20.747Z,141972.50
2024-02-08T04:16:06.569Z,141961.72
2024-02-08T04:18:53.453Z,141980.91
2024-02-08T04:21:39.127Z,141977.31
2024-02-08T04:24:25.495Z,141986.94
2024-02-08T04:27:10.771Z,141990.50
2024-02-08T04:29:56.481Z,141989.31
2024-02-08T04:32:42.329Z,141976.13
2024-02-08T04:35:30.594Z,141949.72
2024-02-08T04:38:16.511Z,141964.16
2024-02-08T04:41:02.489Z,141976.13
2024-02-08T04:43:48.148Z,141907.72
2024-02-08T04:46:38.468Z,141978.53
2024-02-08T04:49:24.369Z,141934.13
2024-02-08T04:52:13.656Z,141985.72
2024-02-08T04:54:42.138Z,141988.13
2024-02-08T04:57:12.493Z,141947.34
2024-02-08T04:59:46.515Z,141923.28
2024-02-08T05:02:15.086Z,141997.75
2024-02-08T05:04:44.231Z,141992.94
2024-02-08T05:07:12.255Z,141988.13
2024-02-08T05:09:40.996Z,141980.91
2024-02-08T05:12:11.880Z,141978.53
2024-02-08T05:14:39.759Z,141908.91
2024-02-08T05:17:09.975Z,141976.13
2024-02-08T05:19:41.210Z,141980.91
2024-02-08T05:22:12.253Z,141932.94
2024-02-08T05:24:39.455Z,141992.94
2024-02-08T05:27:06.548Z,141998.94
2024-02-08T05:29:34.636Z,141991.75
2024-02-08T05:32:02.550Z,141983.34
2024-02-08T05:34:29.727Z,141989.31
2024-02-08T05:36:57.978Z,141985.72
2024-02-08T05:39:26.721Z,141995.31
2024-02-08T05:41:59.309Z,141944.91
2024-02-08T05:44:31.302Z,141990.50
2024-02-08T05:47:10.521Z,142004.97
2024-02-08T05:49:46.874Z,142000.16
2024-02-08T05:52:15.285Z,141985.72
2024-02-08T05:54:47.085Z,141994.13
2024-02-08T05:57:14.449Z,141983.34
2024-02-08T05:59:45.717Z,141998.94
2024-02-08T06:02:23.902Z,142000.16
2024-02-08T06:05:00.878Z,142000.16
2024-02-08T06:07:32.534Z,142004.97
2024-02-08T06:10:09.459Z,141997.75
2024-02-08T06:12:52.616Z,142007.34
2024-02-08T06:15:23.097Z,141995.31
2024-02-08T06:18:10.385Z,142000.16
2024-02-08T06:20:42.339Z,142020.53
2024-02-08T06:23:24.365Z,142003.72
2024-02-08T06:26:11.367Z,141889.72
2024-02-08T06:28:48.605Z,142000.16
2024-02-08T06:31:19.953Z,141997.75
2024-02-08T06:34:07.534Z,142012.13
2024-02-08T06:36:35.585Z,142036.16
2024-02-08T06:39:30.801Z,142019.34
2024-02-08T06:42:17.943Z,142010.94
2024-02-08T06:44:54.202Z,142026.53
2024-02-08T06:47:56.523Z,142014.56
2024-02-08T06:50:43.032Z,141922.09
2024-02-08T06:53:29.189Z,142016.94
2024-02-08T06:56:15.067Z,142012.13
2024-02-08T06:59:01.280Z,141930.50
2024-02-08T07:01:47.156Z,141930.50
2024-02-08T07:04:32.881Z,142016.94
2024-02-08T07:07:18.713Z,142028.94
2024-02-08T07:10:05.194Z,142026.53
2024-02-08T07:12:50.699Z,142033.75
2024-02-08T07:15:36.377Z,142015.75
2024-02-08T07:18:22.218Z,142009.75
2024-02-08T07:21:08.255Z,142033.75
2024-02-08T07:23:54.471Z,142040.97
2024-02-08T07:26:40.142Z,142049.34
2024-02-08T07:29:25.873Z,142060.16
2024-02-08T07:32:11.684Z,142070.97
2024-02-08T07:34:57.413Z,142067.34
2024-02-08T07:37:27.884Z,142072.16
2024-02-08T07:40:02.378Z,142078.19
2024-02-08T07:42:30.417Z,142088.97
2024-02-08T07:44:58.631Z,142057.75
2024-02-08T07:47:26.347Z,142064.97
2024-02-08T07:50:11.225Z,142058.97
2024-02-08T07:52:47.121Z,142068.59
2024-02-08T07:58:10.619Z,142070.97
2024-02-08T08:00:40.983Z,142067.34
2024-02-08T08:03:16.813Z,142077.00
2024-02-08T08:05:46.313Z,142096.19
2024-02-08T08:08:33.429Z,142079.38
2024-02-08T08:11:05.137Z,142092.59
2024-02-08T08:13:55.282Z,142099.81
2024-02-08T08:16:33.149Z,142103.38
2024-02-08T08:19:09.315Z,142098.56
2024-02-08T08:22:05.130Z,142121.38
2024-02-08T08:24:52.535Z,142132.22
2024-02-08T08:27:28.939Z,142093.78
2024-02-08T08:29:59.479Z,142170.63
2024-02-08T08:32:33.685Z,142180.25
2024-02-08T08:35:23.788Z,142177.84
2024-02-08T08:38:10.254Z,142181.47
2024-02-08T08:40:41.342Z,142187.47
2024-02-08T08:43:11.640Z,142199.50
2024-02-08T08:45:42.620Z,142020.53
2024-02-08T08:48:09.934Z,142187.47
2024-02-08T08:50:37.038Z,142171.88
2024-02-08T08:53:18.211Z,142179.06
2024-02-08T08:55:51.017Z,142175.44
2024-02-08T08:58:23.546Z,142168.25
2024-02-08T09:01:00.362Z,142240.34
2024-02-08T09:03:27.919Z,142210.28
2024-02-08T09:05:59.208Z,142312.44
2024-02-08T09:08:35.439Z,142317.25
2024-02-08T09:11:04.889Z,142334.06
2024-02-08T09:13:38.427Z,142346.06
2024-02-08T09:16:25.113Z,142340.06
2024-02-08T09:19:00.522Z,142247.53
2024-02-08T09:21:36.244Z,142269.16
2024-02-08T09:24:12.368Z,142346.06
2024-02-08T09:26:57.812Z,142374.94
2024-02-08T09:29:28.730Z,142391.75
2024-02-08T09:31:59.596Z,142372.50
2024-02-08T09:34:41.458Z,142384.56
2024-02-08T09:37:10.387Z,142400.16
2024-02-08T09:39:53.846Z,142403.78
2024-02-08T09:42:31.343Z,142411.00
2024-02-08T09:45:17.861Z,142337.66
2024-02-08T09:47:56.291Z,142427.81
2024-02-08T09:50:39.411Z,142402.59
2024-02-08T09:53:17.032Z,142371.31
2024-02-08T09:55:56.486Z,142352.09
2024-02-08T09:58:43.251Z,142334.06
2024-02-08T10:01:31.549Z,142326.84
2024-02-08T10:04:06.562Z,142362.91
2024-02-08T10:06:47.044Z,142372.50
2024-02-08T10:09:34.116Z,142355.69
2024-02-08T10:12:12.728Z,142348.50
2024-02-08T10:14:43.886Z,142353.28
2024-02-08T10:17:29.339Z,142355.69
2024-02-08T10:20:16.060Z,142325.66
2024-02-08T10:22:54.981Z,142334.06
2024-02-08T10:25:44.989Z,142312.44
2024-02-08T10:28:22.942Z,142336.47
2024-02-08T10:30:58.486Z,142265.53
2024-02-08T10:33:26.690Z,142312.44
2024-02-08T10:36:09.232Z,142287.19
2024-02-08T10:38:55.112Z,142278.75
2024-02-08T10:41:40.418Z,142312.44
2024-02-08T10:44:18.742Z,142286.00
2024-02-08T10:46:49.438Z,142324.41
2024-02-08T10:49:17.383Z,142314.81
2024-02-08T10:51:46.504Z,142299.22
2024-02-08T10:54:17.202Z,142233.09
2024-02-08T10:57:07.416Z,142301.59
2024-02-08T10:59:51.557Z,142286.00
2024-02-08T11:02:36.768Z,142169.44
2024-02-08T11:05:28.601Z,142326.84
2024-02-08T11:07:55.882Z,142302.81
2024-02-08T11:10:24.672Z,142317.25
2024-02-08T11:12:56.414Z,142326.84
2024-02-08T11:15:39.644Z,142343.69
2024-02-08T11:18:26.892Z,142350.88
2024-02-08T11:21:04.846Z,142334.06
2024-02-08T11:23:33.203Z,142324.41
2024-02-08T11:26:10.224Z,142265.53
2024-02-08T11:28:48.792Z,142317.25
2024-02-08T11:31:18.316Z,142205.47
2024-02-08T11:33:46.267Z,142307.63
2024-02-08T11:36:17.310Z,142266.78
2024-02-08T11:38:49.067Z,142266.78
2024-02-08T11:41:19.917Z,142206.66
2024-02-08T11:43:52.862Z,142298.03
2024-02-08T11:46:20.799Z,142255.94
2024-02-08T11:48:49.445Z,142310.00
2024-02-08T11:51:18.237Z,142300.41
2024-02-08T11:53:46.682Z,142261.97
2024-02-08T11:56:16.912Z,142206.66
2024-02-08T11:58:55.445Z,142324.41
2024-02-08T12:01:26.977Z,142323.22
2024-02-08T12:03:55.147Z,142276.38
2024-02-08T12:06:27.196Z,142294.41
2024-02-08T12:09:00.550Z,142336.47
2024-02-08T12:11:30.876Z,142329.28
2024-02-08T12:14:15.449Z,142343.69
2024-02-08T12:16:51.991Z,142358.09
2024-02-08T12:19:20.299Z,142343.69
2024-02-08T12:21:58.528Z,142362.91
2024-02-08T12:24:26.990Z,142380.94
2024-02-08T12:26:59.079Z,142376.13
2024-02-08T12:29:27.614Z,142398.97
2024-02-08T12:31:56.134Z,142419.44
2024-02-08T12:34:32.714Z,142432.59
2024-02-08T12:37:07.176Z,142442.28
2024-02-08T12:39:39.360Z,142439.84
2024-02-08T12:42:06.643Z,142430.22
2024-02-08T12:44:37.153Z,142355.69
2024-02-08T12:47:07.328Z,142480.72
2024-02-08T12:49:35.235Z,142425.44
2024-02-08T12:52:04.363Z,142415.81
2024-02-08T12:54:33.733Z,142403.78
2024-02-08T12:57:09.179Z,142484.34
2024-02-08T12:59:41.378Z,142406.19
2024-02-08T13:02:19.132Z,142467.50
2024-02-08T13:04:49.584Z,142454.25
2024-02-08T13:07:20.622Z,142471.13
2024-02-08T13:09:47.995Z,142461.50
2024-02-08T13:12:20.721Z,142466.31
2024-02-08T13:14:50.799Z,142499.94
2024-02-08T13:17:22.480Z,142484.34
2024-02-08T13:19:57.410Z,142471.13
2024-02-08T13:22:26.578Z,142495.16
2024-02-08T13:24:54.736Z,142531.22
2024-02-08T13:27:25.972Z,142569.75
2024-02-08T13:29:53.754Z,142598.59
2024-02-08T13:32:26.501Z,142569.75
2024-02-08T13:34:54.945Z,142587.78
2024-02-08T13:37:23.319Z,142668.41
2024-02-08T13:39:53.542Z,142605.81
2024-02-08T13:42:24.156Z,142675.59
2024-02-08T13:44:52.838Z,142685.22
2024-02-08T13:47:24.853Z,142659.97
2024-02-08T13:49:56.829Z,142610.63
2024-02-08T13:52:30.863Z,142646.72
2024-02-08T13:54:59.856Z,142704.50
2024-02-08T13:57:27.243Z,142678.03
2024-02-08T13:59:56.600Z,142661.16
2024-02-08T14:02:24.654Z,142670.78
2024-02-08T14:04:56.794Z,142668.41
2024-02-08T14:07:27.577Z,142673.22
2024-02-08T14:09:59.695Z,142613.03
2024-02-08T14:12:27.603Z,142684.03
2024-02-08T14:14:59.073Z,142700.88
2024-02-08T14:17:35.746Z,142700.88
2024-02-08T14:20:06.051Z,142723.75
2024-02-08T14:22:40.108Z,142744.22
2024-02-08T14:25:24.778Z,142740.59
2024-02-08T14:27:56.083Z,142759.84
2024-02-08T14:30:23.135Z,142771.91
2024-02-08T14:32:51.531Z,142764.66
2024-02-08T14:35:18.764Z,142759.84
2024-02-08T14:37:47.271Z,142656.34
2024-02-08T14:40:15.774Z,142757.44
2024-02-08T14:42:44.588Z,142755.03
2024-02-08T14:45:13.446Z,142737.00
2024-02-08T14:47:43.160Z,142800.78
2024-02-08T14:50:45.801Z,142795.97
2024-02-08T14:53:12.902Z,142797.16
2024-02-08T14:55:46.203Z,142787.53
2024-02-08T14:58:41.628Z,142815.22
2024-02-08T15:01:31.642Z,142830.91
2024-02-08T15:03:59.879Z,142832.09
2024-02-08T15:06:39.542Z,142808.03
2024-02-08T15:09:25.143Z,142690.06
2024-02-08T15:11:59.261Z,142810.41
2024-02-08T15:14:36.659Z,142726.16
2024-02-08T15:17:20.027Z,142805.59
2024-02-08T15:19:48.277Z,142738.19
2024-02-08T15:22:20.855Z,142834.50
2024-02-08T15:24:48.981Z,142833.28
2024-02-08T15:27:19.661Z,142738.19
2024-02-08T15:29:52.663Z,142836.91
2024-02-08T15:32:31.535Z,142836.91
2024-02-08T15:34:58.814Z,142844.13
2024-02-08T15:37:32.826Z,142836.91
2024-02-08T15:40:15.514Z,142844.13
2024-02-08T15:42:43.926Z,142838.09
2024-02-08T15:45:14.246Z,142839.31
2024-02-08T15:48:01.598Z,142836.91
2024-02-08T15:50:43.769Z,142838.09
2024-02-08T15:53:20.952Z,142743.00
2024-02-08T15:55:57.053Z,142839.31
2024-02-08T15:58:27.893Z,142853.78
2024-02-08T16:01:11.582Z,142877.84
2024-02-08T16:03:53.969Z,142800.78
2024-02-08T16:06:41.096Z,142865.78
2024-02-08T16:09:34.196Z,142858.59
2024-02-08T16:12:20.375Z,142844.13
2024-02-08T16:15:09.525Z,142901.91
2024-02-08T16:17:38.236Z,142918.78
2024-02-08T16:20:17.740Z,142913.97
2024-02-08T16:22:58.189Z,142865.78
2024-02-08T16:25:45.061Z,142918.78
2024-02-08T16:28:18.382Z,142887.47
2024-02-08T16:30:55.363Z,142882.66
2024-02-08T16:33:34.233Z,142928.41
2024-02-08T16:36:10.276Z,142944.09
2024-02-08T16:38:47.761Z,142989.84
2024-02-08T16:41:16.189Z,143022.38
2024-02-08T16:43:45.326Z,143072.97
2024-02-08T16:46:14.217Z,143106.75
2024-02-08T16:48:48.253Z,143145.28
2024-02-08T16:51:24.964Z,143133.25
2024-02-08T16:54:02.446Z,143197.16
2024-02-08T16:56:40.666Z,143209.16
2024-02-08T16:59:16.448Z,143222.44
2024-02-08T17:02:02.680Z,143232.13
2024-02-08T17:04:41.457Z,143258.59
2024-02-08T17:07:12.561Z,143270.69
2024-02-08T17:09:47.313Z,143287.56
2024-02-08T17:12:29.284Z,143299.59
2024-02-08T17:14:58.162Z,143304.41
2024-02-08T17:17:36.188Z,143309.28
2024-02-08T17:20:07.929Z,143321.31
2024-02-08T17:22:52.693Z,143309.28
2024-02-08T17:25:19.700Z,143364.75
2024-02-08T17:27:57.038Z,143384.03
2024-02-08T17:30:38.045Z,143384.03
2024-02-08T17:33:12.737Z,143402.13
2024-02-08T17:35:41.364Z,143417.84
2024-02-08T17:38:09.098Z,143423.88
2024-02-08T17:40:36.920Z,143425.06
2024-02-08T17:43:10.414Z,143376.78
2024-02-08T17:45:57.244Z,143420.25
2024-02-08T17:48:29.223Z,143425.06
2024-02-08T17:51:00.076Z,143369.59
2024-02-08T17:53:29.016Z,143340.59
2024-02-08T17:56:07.983Z,143449.19
2024-02-08T17:58:36.522Z,143449.19
2024-02-08T18:01:08.495Z,143441.97
2024-02-08T18:03:36.089Z,143456.44
2024-02-08T18:06:07.004Z,143457.63
2024-02-08T18:08:39.497Z,143468.50
2024-02-08T18:11:09.333Z,143456.44
2024-02-08T18:13:38.691Z,143466.09
2024-02-08T18:16:11.115Z,143474.53
2024-02-08T18:18:40.391Z,143466.09
2024-02-08T18:21:14.540Z,143456.44
2024-02-08T18:23:46.530Z,143461.25
2024-02-08T18:26:28.074Z,143466.09
2024-02-08T18:28:57.251Z,143458.88
2024-02-08T18:31:24.510Z,143468.50
2024-02-08T18:33:58.932Z,143468.50
2024-02-08T18:36:26.410Z,143473.34
2024-02-08T18:38:53.904Z,143485.38
2024-02-08T18:41:24.771Z,143473.34
2024-02-08T18:43:52.907Z,143497.47
2024-02-08T18:46:20.795Z,143456.44
2024-02-08T18:48:54.480Z,143514.38
2024-02-08T18:51:23.337Z,143508.34
2024-02-08T18:53:51.142Z,143509.53
2024-02-08T18:56:19.468Z,143493.81
2024-02-08T18:58:51.564Z,143524.00
2024-02-08T19:01:21.741Z,143533.66
2024-02-08T19:03:49.602Z,143439.53
2024-02-08T19:06:18.991Z,143538.50
2024-02-08T19:08:46.451Z,143542.13
2024-02-08T19:11:13.611Z,143518.00
2024-02-08T19:13:42.143Z,143540.94
2024-02-08T19:16:16.300Z,143552.97
2024-02-08T19:18:47.325Z,143521.56
2024-02-08T19:21:28.639Z,143542.13
2024-02-08T19:23:58.416Z,143551.75
2024-02-08T19:26:26.727Z,143554.19
2024-02-08T19:28:56.066Z,143534.84
2024-02-08T19:31:32.073Z,143543.31
2024-02-08T19:34:04.962Z,143549.38
2024-02-08T19:36:33.541Z,143561.41
2024-02-08T19:39:19.821Z,143565.06
2024-02-08T19:41:50.499Z,143575.91
2024-02-08T19:44:25.153Z,143572.31
2024-02-08T19:47:08.246Z,143579.53
2024-02-08T19:49:39.937Z,143589.19
2024-02-08T19:52:09.060Z,143454.03
2024-02-08T19:54:39.790Z,143580.75
2024-02-08T19:57:07.275Z,143484.19
2024-02-08T19:59:40.388Z,143577.13
2024-02-08T20:02:08.143Z,143574.69
2024-02-08T20:04:42.194Z,143571.06
2024-02-08T20:07:12.332Z,143567.47
2024-02-08T20:09:43.270Z,143574.69
2024-02-08T20:12:16.108Z,143573.50
2024-02-08T20:14:48.755Z,143565.06
2024-02-08T20:19:48.230Z,143508.34
2024-02-08T20:22:18.502Z,143565.06
2024-02-08T20:24:48.758Z,143562.66
2024-02-08T20:27:16.298Z,143572.31
2024-02-08T20:29:43.840Z,143573.50
2024-02-08T20:32:14.249Z,143467.28
2024-02-08T20:34:41.550Z,143555.41
2024-02-08T20:37:15.037Z,143568.69
2024-02-08T20:39:44.148Z,143569.88
2024-02-08T20:42:13.444Z,143567.47
2024-02-08T20:44:44.871Z,143458.88
2024-02-08T20:47:13.303Z,143548.13
2024-02-08T20:49:41.919Z,143486.63
2024-02-08T20:52:13.343Z,143543.31
2024-02-08T20:54:44.650Z,143543.31
2024-02-08T20:57:12.229Z,143526.44
2024-02-08T20:59:44.395Z,143531.28
2024-02-08T21:02:16.443Z,143531.28
2024-02-08T21:04:46.750Z,143515.56
2024-02-08T21:07:17.853Z,143508.34
2024-02-08T21:09:49.650Z,143521.56
2024-02-08T21:12:18.113Z,143526.44
2024-02-08T21:14:45.485Z,143519.19
2024-02-08T21:17:12.690Z,143528.84
2024-02-08T21:19:48.733Z,143519.19
2024-02-08T21:22:16.931Z,143543.31
2024-02-08T21:24:44.086Z,143522.81
2024-02-08T21:27:19.777Z,143513.16
2024-02-08T21:29:47.687Z,143502.28
2024-02-08T21:32:14.832Z,143511.94
2024-02-08T21:34:41.903Z,143514.38
2024-02-08T21:37:09.713Z,143534.84
2024-02-08T21:39:37.728Z,143551.75
2024-02-08T21:42:07.643Z,143528.84
2024-02-08T21:44:36.107Z,143379.22
2024-02-08T21:47:03.163Z,143543.31
2024-02-08T21:49:30.342Z,143444.34
2024-02-08T21:51:57.491Z,143545.75
2024-02-08T21:54:27.165Z,143455.25
2024-02-08T21:56:54.916Z,143538.50
2024-02-08T21:59:21.967Z,143525.22
2024-02-08T22:01:49.212Z,143545.75
2024-02-08T22:04:16.655Z,143537.28
2024-02-08T22:06:48.833Z,143533.66
2024-02-08T22:09:16.348Z,143468.50
2024-02-08T22:11:48.495Z,143514.38
2024-02-08T22:14:20.823Z,143509.53
2024-02-08T22:16:48.612Z,143476.97
2024-02-08T22:19:16.181Z,143519.19
2024-02-08T22:21:47.013Z,143514.38
2024-02-08T22:24:15.221Z,143503.47
2024-02-08T22:26:53.226Z,143499.91
2024-02-08T22:29:20.871Z,143514.38
2024-02-08T22:31:50.165Z,143495.06
2024-02-08T22:34:23.199Z,143502.28
2024-02-08T22:36:50.532Z,143511.94
2024-02-08T22:39:18.185Z,143481.78
2024-02-08T22:41:49.003Z,143504.72
2024-02-08T22:44:16.946Z,143434.72
2024-02-08T22:46:47.099Z,143514.38
2024-02-08T22:49:15.043Z,143408.16
2024-02-08T22:51:46.945Z,143501.09
2024-02-08T22:54:14.292Z,143499.91
2024-02-08T22:56:44.342Z,143518.00
2024-02-08T22:59:12.875Z,143513.16
2024-02-08T23:01:44.150Z,143480.56
2024-02-08T23:04:15.143Z,143425.06
2024-02-08T23:06:43.980Z,143485.38
2024-02-08T23:09:17.061Z,143495.06
2024-02-08T23:11:46.041Z,143487.81
2024-02-08T23:14:20.013Z,143502.28
2024-02-08T23:16:52.330Z,143511.94
2024-02-08T23:19:21.053Z,143499.91
2024-02-08T23:21:54.229Z,143525.22
2024-02-08T23:24:24.552Z,143504.72
2024-02-08T23:26:52.433Z,143456.44
2024-02-08T23:29:22.016Z,143483.00
2024-02-08T23:31:50.869Z,143487.81
2024-02-08T23:34:18.275Z,143530.03
2024-02-08T23:36:47.039Z,143485.38
2024-02-08T23:39:14.998Z,143485.38
2024-02-08T23:41:42.250Z,143487.81
2024-02-08T23:44:09.447Z,143446.78
2024-02-08T23:46:37.270Z,143508.34
2024-02-08T23:49:06.187Z,143492.63
2024-02-08T23:51:33.660Z,143474.53
2024-02-08T23:54:00.851Z,143470.91
2024-02-08T23:56:29.035Z,143473.34
2024-02-08T23:58:56.709Z,143463.69
